Time;durP1;ratioP1;P1;durP2;ratioP2;P2;SDS_P1;SDS_P2;PMS_P1;PMS_P2;Temp;Humidity;BMP_temperature;BMP_pressure;BME280_temperature;BME280_humidity;BME280_pressure;Samples;Min_cycle;Max_cycle;Signal;HPM_P1;HPM_P2
2022/06/30 00:00:31;;;;;;;2.23;1.30;;;20.20;99.90;;;;;;4962434;28;20194;-75
2022/06/30 00:02:57;;;;;;;4.13;1.40;;;20.20;99.90;;;;;;4974674;28;20689;-75
2022/06/30 00:05:25;;;;;;;2.30;1.30;;;20.20;99.90;;;;;;4966811;28;20664;-74
2022/06/30 00:07:51;;;;;;;1.47;1.20;;;20.20;99.90;;;;;;4958082;28;20190;-74
2022/06/30 00:10:18;;;;;;;1.40;1.30;;;20.20;99.90;;;;;;4955093;28;20710;-74
2022/06/30 00:12:44;;;;;;;2.73;1.60;;;20.10;99.90;;;;;;4962086;28;20209;-74
2022/06/30 00:15:11;;;;;;;2.33;1.23;;;20.20;99.90;;;;;;4958538;28;20195;-74
2022/06/30 00:17:37;;;;;;;1.37;1.23;;;20.10;99.90;;;;;;4960641;28;20186;-74
2022/06/30 00:20:04;;;;;;;2.20;1.30;;;20.10;99.90;;;;;;4966914;28;20187;-74
2022/06/30 00:22:31;;;;;;;2.20;1.73;;;20.10;99.90;;;;;;4956873;28;20205;-73
2022/06/30 00:24:57;;;;;;;3.00;1.60;;;20.10;99.90;;;;;;4957060;28;20198;-74
2022/06/30 00:27:23;;;;;;;3.47;1.50;;;20.10;99.90;;;;;;4965100;28;20215;-75
2022/06/30 00:29:49;;;;;;;2.17;1.50;;;20.20;99.90;;;;;;4966748;28;20257;-74
2022/06/30 00:32:16;;;;;;;5.60;1.40;;;20.10;99.90;;;;;;4952286;28;20186;-74
2022/06/30 00:34:43;;;;;;;1.90;1.30;;;20.00;99.90;;;;;;4958749;28;20789;-74
2022/06/30 00:37:09;;;;;;;1.60;1.50;;;20.00;99.90;;;;;;4958829;28;20294;-74
2022/06/30 00:39:35;;;;;;;1.47;1.37;;;20.00;99.90;;;;;;4972299;28;20639;-75
2022/06/30 00:42:04;;;;;;;2.57;1.50;;;20.00;99.90;;;;;;4950214;28;20206;-74
2022/06/30 00:44:32;;;;;;;2.07;1.53;;;20.00;99.90;;;;;;4958769;28;20190;-75
2022/06/30 00:46:58;;;;;;;4.20;1.40;;;20.00;99.90;;;;;;4956728;28;20272;-75
2022/06/30 00:49:25;;;;;;;3.63;1.53;;;20.00;99.90;;;;;;4945080;28;20277;-75
2022/06/30 00:51:52;;;;;;;3.40;1.70;;;20.10;99.90;;;;;;4960418;28;20191;-74
2022/06/30 00:54:23;;;;;;;2.83;1.93;;;20.10;99.90;;;;;;4962843;28;20190;-75
2022/06/30 00:56:54;;;;;;;3.93;1.60;;;20.10;99.90;;;;;;4958400;28;20183;-74
2022/06/30 00:59:22;;;;;;;2.43;1.63;;;20.10;99.90;;;;;;4949328;28;20205;-74
2022/06/30 01:01:49;;;;;;;2.53;1.70;;;20.10;99.90;;;;;;4973895;28;20194;-74
2022/06/30 01:04:17;;;;;;;3.00;1.80;;;20.10;99.90;;;;;;4951204;28;20203;-74
2022/06/30 01:06:45;;;;;;;1.97;1.50;;;20.10;99.90;;;;;;4957024;28;20202;-74
2022/06/30 01:14:43;;;;;;;2.23;1.87;;;20.10;99.90;;;;;;4954551;28;20262;-74
2022/06/30 01:17:10;;;;;;;1.70;1.43;;;20.00;99.90;;;;;;4943433;28;20823;-74
2022/06/30 01:19:37;;;;;;;3.87;1.67;;;20.00;99.90;;;;;;4971182;28;20227;-75
2022/06/30 01:22:04;;;;;;;2.63;1.63;;;19.90;99.90;;;;;;4938588;29;20249;-74
2022/06/30 01:24:30;;;;;;;1.50;1.40;;;19.90;99.90;;;;;;4947814;28;20195;-74
2022/06/30 01:26:57;;;;;;;1.63;1.40;;;19.90;99.90;;;;;;4957666;28;20297;-75
2022/06/30 01:29:24;;;;;;;1.90;1.60;;;19.90;99.90;;;;;;4973302;28;20691;-75
2022/06/30 01:31:51;;;;;;;1.70;1.40;;;19.90;99.90;;;;;;4948833;28;20190;-73
2022/06/30 01:34:17;;;;;;;2.57;1.70;;;19.90;99.90;;;;;;4947360;28;20297;-74
2022/06/30 01:36:43;;;;;;;1.67;1.17;;;19.80;99.90;;;;;;4961736;28;20190;-74
2022/06/30 01:39:11;;;;;;;2.80;1.30;;;19.80;99.90;;;;;;4951665;28;20632;-74
2022/06/30 01:41:37;;;;;;;1.40;1.30;;;19.80;99.90;;;;;;4966858;28;20198;-74
2022/06/30 01:44:04;;;;;;;3.43;1.40;;;19.80;99.90;;;;;;4956680;28;20195;-74
2022/06/30 01:46:30;;;;;;;2.40;1.30;;;19.70;99.90;;;;;;4965441;28;20191;-74
2022/06/30 01:48:57;;;;;;;1.63;1.53;;;19.60;99.90;;;;;;4972468;28;20757;-74
2022/06/30 01:51:23;;;;;;;1.30;1.20;;;19.60;99.90;;;;;;4958214;28;20273;-74
2022/06/30 01:53:50;;;;;;;1.87;1.20;;;19.60;99.90;;;;;;4945413;28;20190;-74
2022/06/30 01:56:16;;;;;;;1.40;1.20;;;19.60;99.90;;;;;;4973248;28;20187;-74
2022/06/30 01:58:43;;;;;;;1.40;1.20;;;19.60;99.90;;;;;;4971794;28;20194;-74
2022/06/30 02:01:10;;;;;;;2.70;1.53;;;19.60;99.90;;;;;;4952013;28;20290;-74
2022/06/30 02:03:36;;;;;;;1.63;1.37;;;19.60;99.90;;;;;;4928766;29;20195;-74
2022/06/30 02:06:02;;;;;;;2.30;1.43;;;19.50;99.90;;;;;;4914727;29;20199;-74
2022/06/30 02:08:29;;;;;;;2.07;1.40;;;19.50;99.90;;;;;;4921201;29;20262;-74
2022/06/30 02:10:55;;;;;;;2.80;1.30;;;19.50;99.90;;;;;;4957251;28;20225;-74
2022/06/30 02:13:22;;;;;;;1.30;1.20;;;19.50;99.90;;;;;;4957503;28;20320;-75
2022/06/30 02:15:48;;;;;;;2.10;1.27;;;19.60;99.90;;;;;;4959493;28;20229;-74
2022/06/30 02:18:14;;;;;;;1.30;1.20;;;19.60;99.90;;;;;;4955769;28;20245;-74
2022/06/30 02:20:41;;;;;;;1.33;1.17;;;19.60;99.90;;;;;;4962395;28;20191;-74
2022/06/30 02:23:07;;;;;;;1.20;1.10;;;19.60;99.90;;;;;;4983950;28;20290;-75
2022/06/30 02:25:34;;;;;;;2.87;1.30;;;19.50;99.90;;;;;;4962960;28;20562;-74
2022/06/30 02:28:03;;;;;;;1.50;1.10;;;19.50;99.90;;;;;;4954535;28;20198;-74
2022/06/30 02:30:29;;;;;;;2.57;1.33;;;19.60;99.90;;;;;;4976384;28;20304;-75
2022/06/30 02:32:56;;;;;;;2.53;1.33;;;19.60;99.90;;;;;;4959347;28;20194;-75
2022/06/30 02:35:23;;;;;;;1.53;1.23;;;19.60;99.90;;;;;;4966708;28;20191;-74
2022/06/30 02:37:50;;;;;;;2.40;1.30;;;19.60;99.90;;;;;;4974081;28;20679;-74
2022/06/30 02:40:17;;;;;;;1.40;1.13;;;19.60;99.90;;;;;;4963541;28;20232;-74
2022/06/30 02:42:44;;;;;;;2.87;1.17;;;19.50;99.90;;;;;;4951339;28;20206;-74
2022/06/30 02:45:11;;;;;;;3.17;1.20;;;19.50;99.90;;;;;;4958802;28;20202;-74
2022/06/30 02:47:41;;;;;;;2.97;1.30;;;19.60;99.90;;;;;;4980369;28;20186;-74
2022/06/30 02:50:11;;;;;;;2.17;1.20;;;19.60;99.90;;;;;;4956497;28;20214;-74
2022/06/30 02:52:39;;;;;;;1.20;1.10;;;19.50;99.90;;;;;;4978227;28;20191;-74
2022/06/30 02:55:08;;;;;;;1.20;1.10;;;19.50;99.90;;;;;;4987356;28;20256;-74
2022/06/30 02:57:39;;;;;;;1.50;1.40;;;19.50;99.90;;;;;;4968540;28;20191;-74
2022/06/30 03:00:10;;;;;;;2.23;1.10;;;19.50;99.90;;;;;;4965870;28;20281;-74
2022/06/30 03:02:38;;;;;;;2.50;1.20;;;19.50;99.90;;;;;;4970630;28;20194;-74
2022/06/30 03:05:05;;;;;;;2.83;1.53;;;19.50;99.90;;;;;;4960240;28;20202;-74
2022/06/30 03:07:31;;;;;;;1.60;1.07;;;19.50;99.90;;;;;;4953558;28;20203;-75
2022/06/30 03:09:58;;;;;;;3.93;1.50;;;19.50;99.90;;;;;;4952946;28;20218;-74
2022/06/30 03:12:24;;;;;;;1.33;1.20;;;19.50;99.90;;;;;;4971282;28;21063;-74
2022/06/30 03:14:51;;;;;;;1.47;1.30;;;19.50;99.90;;;;;;4952510;28;20310;-74
2022/06/30 03:17:17;;;;;;;2.33;1.23;;;19.50;99.90;;;;;;4976249;28;20195;-75
2022/06/30 03:19:44;;;;;;;1.60;1.33;;;19.60;99.90;;;;;;4952354;28;20199;-74
2022/06/30 03:22:10;;;;;;;1.43;1.30;;;19.60;99.90;;;;;;4959253;28;20212;-74
2022/06/30 03:24:37;;;;;;;1.43;1.20;;;19.60;99.90;;;;;;4974100;28;20537;-74
2022/06/30 03:27:04;;;;;;;3.63;1.30;;;19.60;99.90;;;;;;4955376;28;20203;-73
2022/06/30 03:29:30;;;;;;;2.27;1.07;;;19.60;99.90;;;;;;4945548;28;20222;-74
2022/06/30 03:31:57;;;;;;;1.77;1.33;;;19.60;99.90;;;;;;4955554;28;20182;-74
2022/06/30 03:34:23;;;;;;;1.77;1.20;;;19.60;99.90;;;;;;4972981;28;20225;-74
2022/06/30 03:36:49;;;;;;;1.43;1.03;;;19.60;99.90;;;;;;4966304;28;20192;-74
2022/06/30 03:39:15;;;;;;;1.47;1.13;;;19.60;99.90;;;;;;4962144;28;20238;-74
2022/06/30 03:41:42;;;;;;;1.30;1.07;;;19.60;99.90;;;;;;4933145;29;20218;-74
2022/06/30 03:44:10;;;;;;;1.13;1.00;;;19.70;99.90;;;;;;4961962;28;20191;-75
2022/06/30 03:46:37;;;;;;;1.30;1.03;;;19.60;99.90;;;;;;4970453;28;20244;-74
2022/06/30 03:49:04;;;;;;;3.57;1.40;;;19.60;99.90;;;;;;4951295;28;20201;-74
2022/06/30 03:51:30;;;;;;;1.20;1.10;;;19.60;99.90;;;;;;4950666;29;20187;-74
2022/06/30 03:53:57;;;;;;;1.43;1.27;;;19.70;99.90;;;;;;4947956;28;20739;-74
2022/06/30 03:56:25;;;;;;;1.40;1.00;;;19.70;99.90;;;;;;4955427;28;20186;-74
2022/06/30 03:58:52;;;;;;;1.63;1.40;;;19.70;99.90;;;;;;4970948;28;20247;-75
2022/06/30 04:01:19;;;;;;;2.00;1.10;;;19.70;99.90;;;;;;4959639;28;20205;-75
2022/06/30 04:03:45;;;;;;;3.60;1.27;;;19.70;99.90;;;;;;4936083;29;20293;-75
2022/06/30 04:06:12;;;;;;;3.60;1.10;;;19.70;99.90;;;;;;4951126;28;20201;-75
2022/06/30 04:08:38;;;;;;;2.90;1.33;;;19.80;99.90;;;;;;4951944;28;20193;-74
2022/06/30 04:11:04;;;;;;;3.07;1.20;;;19.80;99.90;;;;;;4949312;28;20230;-74
2022/06/30 04:13:31;;;;;;;2.13;1.40;;;19.90;99.90;;;;;;4951468;28;20195;-75
2022/06/30 04:15:57;;;;;;;1.20;1.10;;;19.90;99.90;;;;;;4955557;28;20195;-74
2022/06/30 04:18:23;;;;;;;2.50;1.30;;;20.00;99.90;;;;;;4956450;28;20337;-74
2022/06/30 04:20:49;;;;;;;1.30;1.20;;;20.10;99.90;;;;;;4958422;28;20218;-74
2022/06/30 04:23:20;;;;;;;1.30;1.07;;;20.10;99.90;;;;;;4949173;28;20192;-74
2022/06/30 04:25:47;;;;;;;1.40;1.00;;;20.20;99.90;;;;;;4960192;28;20270;-74
2022/06/30 04:28:13;;;;;;;1.87;1.23;;;20.30;99.90;;;;;;4954937;28;20187;-74
2022/06/30 04:33:24;;;;;;;3.70;1.00;;;20.50;99.90;;;;;;4973522;28;20592;-74
2022/06/30 04:35:50;;;;;;;1.57;1.27;;;20.60;99.90;;;;;;4966434;28;20275;-74
2022/06/30 04:38:17;;;;;;;2.90;1.17;;;20.70;99.90;;;;;;4978331;28;20198;-74
2022/06/30 04:43:29;;;;;;;1.37;1.27;;;20.90;99.90;;;;;;4961072;28;20198;-74
2022/06/30 04:45:56;;;;;;;1.60;1.20;;;21.00;99.90;;;;;;4968262;28;20830;-74
2022/06/30 04:48:22;;;;;;;1.90;1.30;;;21.10;99.90;;;;;;4985604;28;20333;-74
2022/06/30 04:50:48;;;;;;;2.47;1.30;;;21.20;99.90;;;;;;4959215;28;20225;-74
2022/06/30 04:53:14;;;;;;;1.83;1.30;;;21.20;99.90;;;;;;4961478;28;20281;-74
2022/06/30 04:55:42;;;;;;;1.60;1.20;;;21.30;99.90;;;;;;4984286;28;20186;-74
2022/06/30 04:58:08;;;;;;;2.87;1.37;;;21.30;99.90;;;;;;4948816;28;20257;-74
2022/06/30 05:00:36;;;;;;;1.43;1.20;;;21.40;99.90;;;;;;4957556;28;20194;-74
2022/06/30 05:03:02;;;;;;;1.67;1.20;;;21.40;99.90;;;;;;4958924;28;20675;-74
2022/06/30 05:05:29;;;;;;;3.17;1.50;;;21.50;99.90;;;;;;4952551;28;20198;-74
2022/06/30 05:07:55;;;;;;;1.73;1.25;;;21.50;99.90;;;;;;4943442;28;20186;-74
2022/06/30 05:10:22;;;;;;;1.63;1.53;;;21.60;99.90;;;;;;4976865;28;20234;-74
2022/06/30 05:12:48;;;;;;;1.97;1.27;;;21.70;99.90;;;;;;4956372;28;20306;-75
2022/06/30 05:15:15;;;;;;;4.87;1.53;;;21.70;99.90;;;;;;4955503;28;20198;-74
2022/06/30 05:17:42;;;;;;;4.33;1.57;;;21.80;99.90;;;;;;4964302;28;20253;-73
2022/06/30 05:20:10;;;;;;;2.17;1.30;;;21.80;99.90;;;;;;4961178;28;20197;-74
2022/06/30 05:22:37;;;;;;;3.70;1.60;;;21.90;99.90;;;;;;4950214;28;20196;-74
2022/06/30 05:27:49;;;;;;;2.30;1.50;;;22.10;99.90;;;;;;4972535;28;20599;-74
2022/06/30 05:30:16;;;;;;;1.30;1.20;;;22.20;99.90;;;;;;4949707;29;20211;-75
2022/06/30 05:32:44;;;;;;;3.25;1.60;;;22.30;99.90;;;;;;4948687;28;20198;-74
2022/06/30 05:35:12;;;;;;;3.75;1.52;;;22.30;99.90;;;;;;4953326;28;20341;-74
2022/06/30 05:37:38;;;;;;;2.20;1.43;;;22.40;99.90;;;;;;4953238;28;20204;-74
2022/06/30 05:40:06;;;;;;;5.05;1.63;;;22.40;99.90;;;;;;4953066;28;20309;-75
2022/06/30 05:42:33;;;;;;;3.33;1.30;;;22.50;99.90;;;;;;4969787;28;20210;-73
2022/06/30 05:44:59;;;;;;;4.33;1.53;;;22.60;99.90;;;;;;4939060;29;20583;-74
2022/06/30 05:47:26;;;;;;;4.40;1.40;;;22.60;99.90;;;;;;4950222;28;20209;-74
2022/06/30 05:49:52;;;;;;;1.88;1.30;;;22.60;99.90;;;;;;4965276;28;20214;-74
2022/06/30 05:52:19;;;;;;;2.25;1.48;;;22.70;99.90;;;;;;4951962;28;20282;-75
2022/06/30 05:54:46;;;;;;;1.40;1.20;;;22.80;99.90;;;;;;4953916;28;20197;-74
2022/06/30 05:57:13;;;;;;;2.27;1.30;;;22.90;99.90;;;;;;4941540;28;20199;-74
2022/06/30 05:59:39;;;;;;;2.33;1.42;;;23.00;99.90;;;;;;4957837;28;20194;-75
2022/06/30 06:02:07;;;;;;;3.22;1.70;;;23.10;99.90;;;;;;4957182;28;20204;-75
2022/06/30 06:04:34;;;;;;;3.27;1.50;;;23.20;99.90;;;;;;4959232;28;20600;-74
2022/06/30 06:07:02;;;;;;;2.13;1.55;;;23.30;99.90;;;;;;4971638;28;20194;-75
2022/06/30 06:09:30;;;;;;;3.45;1.35;;;23.40;99.90;;;;;;4962408;28;20648;-75
2022/06/30 06:11:56;;;;;;;3.47;1.25;;;23.40;99.90;;;;;;4959474;28;20556;-74
2022/06/30 06:14:22;;;;;;;3.10;1.10;;;23.50;99.90;;;;;;4977846;28;20206;-75
2022/06/30 06:16:49;;;;;;;1.42;1.27;;;23.60;99.90;;;;;;4969680;28;20202;-74
2022/06/30 06:19:16;;;;;;;2.25;1.20;;;23.70;99.90;;;;;;4967700;28;20197;-74
2022/06/30 06:21:42;;;;;;;2.15;1.20;;;23.70;99.90;;;;;;4966365;28;20194;-75
2022/06/30 06:24:09;;;;;;;1.77;1.40;;;23.80;99.90;;;;;;4944157;28;20185;-75
2022/06/30 06:26:35;;;;;;;2.85;1.48;;;23.90;99.90;;;;;;4966722;28;20558;-74
2022/06/30 06:29:08;;;;;;;1.30;0.98;;;24.00;99.90;;;;;;4963919;28;20186;-74
2022/06/30 06:31:40;;;;;;;2.17;1.30;;;24.10;99.90;;;;;;4975398;28;20249;-75
2022/06/30 06:34:08;;;;;;;2.90;1.20;;;24.10;99.90;;;;;;4968819;28;20190;-75
2022/06/30 06:36:35;;;;;;;1.55;1.10;;;24.20;99.90;;;;;;4965618;28;20182;-75
2022/06/30 06:39:01;;;;;;;3.35;1.20;;;24.30;99.90;;;;;;4967950;28;20269;-74
2022/06/30 06:41:28;;;;;;;7.22;1.30;;;24.40;99.90;;;;;;4949608;28;20197;-75
2022/06/30 06:43:55;;;;;;;1.25;1.00;;;24.50;99.90;;;;;;4954842;28;20918;-74
2022/06/30 06:46:26;;;;;;;4.65;1.25;;;24.60;99.90;;;;;;4957738;28;20235;-74
2022/06/30 06:49:09;;;;;;;4.10;1.30;;;24.70;99.90;;;;;;4969400;28;20614;-74
2022/06/30 06:51:36;;;;;;;2.05;1.25;;;24.80;99.90;;;;;;4953377;28;20278;-75
2022/06/30 06:54:03;;;;;;;3.92;1.23;;;24.90;99.90;;;;;;4953813;28;20687;-74
2022/06/30 06:56:29;;;;;;;2.42;0.93;;;25.10;99.90;;;;;;4947796;28;20198;-75
2022/06/30 06:58:56;;;;;;;2.50;1.40;;;25.10;99.90;;;;;;4954387;28;20665;-75
2022/06/30 07:01:22;;;;;;;2.78;1.20;;;25.20;99.90;;;;;;4953280;28;20706;-76
2022/06/30 07:03:48;;;;;;;3.55;1.23;;;25.30;99.90;;;;;;4934117;28;20199;-75
2022/06/30 07:06:15;;;;;;;1.48;1.13;;;25.50;99.90;;;;;;4966082;28;20590;-74
2022/06/30 07:08:41;;;;;;;1.63;1.08;;;25.70;99.90;;;;;;4956632;28;20209;-75
2022/06/30 07:11:09;;;;;;;3.97;1.35;;;25.70;99.90;;;;;;4975864;28;20217;-74
2022/06/30 07:13:35;;;;;;;1.85;1.10;;;25.70;99.90;;;;;;4959599;28;20629;-76
2022/06/30 07:16:03;;;;;;;1.45;1.10;;;25.80;99.90;;;;;;4951909;28;20234;-74
2022/06/30 07:18:30;;;;;;;3.03;1.40;;;25.90;99.90;;;;;;4944605;28;20197;-74
2022/06/30 07:20:56;;;;;;;4.00;1.45;;;26.00;99.90;;;;;;4951038;28;20249;-74
2022/06/30 07:23:23;;;;;;;1.52;1.30;;;26.10;99.90;;;;;;4947190;29;20198;-75
2022/06/30 07:25:49;;;;;;;5.70;1.33;;;26.20;99.90;;;;;;4947014;28;20283;-75
2022/06/30 07:28:16;;;;;;;3.97;1.42;;;26.30;99.90;;;;;;4941202;29;20643;-76
2022/06/30 07:30:42;;;;;;;3.58;1.48;;;26.40;99.90;;;;;;4950194;28;20495;-74
2022/06/30 07:33:09;;;;;;;1.52;1.33;;;26.40;99.90;;;;;;4955857;28;20615;-75
2022/06/30 07:35:40;;;;;;;2.78;1.40;;;26.50;99.90;;;;;;4963564;28;20302;-75
2022/06/30 07:38:07;;;;;;;3.20;1.60;;;26.60;99.90;;;;;;4977664;28;20656;-75
2022/06/30 07:40:34;;;;;;;3.78;1.67;;;26.60;99.90;;;;;;4963679;28;20191;-75
2022/06/30 07:43:02;;;;;;;1.63;1.23;;;26.70;99.90;;;;;;4952976;28;20224;-74
2022/06/30 07:45:29;;;;;;;3.65;1.60;;;26.80;99.90;;;;;;4957385;28;20648;-75
2022/06/30 07:47:55;;;;;;;3.28;1.52;;;26.90;99.90;;;;;;4958025;28;20191;-75
2022/06/30 07:50:22;;;;;;;2.20;1.50;;;27.00;99.90;;;;;;4953342;28;20225;-74
2022/06/30 07:52:48;;;;;;;3.72;1.77;;;27.10;99.90;;;;;;4947699;29;20229;-76
2022/06/30 07:55:15;;;;;;;2.75;1.77;;;27.10;99.90;;;;;;4965278;28;20178;-74
2022/06/30 07:57:48;;;;;;;3.75;1.60;;;27.20;99.90;;;;;;4951431;28;20195;-75
2022/06/30 08:00:24;;;;;;;3.03;2.00;;;27.30;99.90;;;;;;4929961;29;20187;-76
2022/06/30 08:02:52;;;;;;;2.25;1.70;;;27.40;99.90;;;;;;4965047;28;20195;-75
2022/06/30 08:05:18;;;;;;;7.65;2.42;;;27.50;99.90;;;;;;4954611;28;21013;-74
2022/06/30 08:07:45;;;;;;;2.60;1.67;;;27.50;99.90;;;;;;4945715;28;20191;-75
2022/06/30 08:10:12;;;;;;;2.50;1.50;;;27.50;99.90;;;;;;4931392;29;20217;-75
2022/06/30 08:12:39;;;;;;;3.40;1.80;;;27.60;99.90;;;;;;4949725;28;20259;-75
2022/06/30 08:15:06;;;;;;;5.47;1.83;;;27.60;99.90;;;;;;4951084;29;20612;-75
2022/06/30 08:17:33;;;;;;;6.85;1.80;;;27.70;99.90;;;;;;4948743;28;20231;-76
2022/06/30 08:20:01;;;;;;;2.15;1.63;;;27.70;99.90;;;;;;4946739;28;20207;-75
2022/06/30 08:22:27;;;;;;;4.72;1.80;;;27.80;99.90;;;;;;4953372;29;20895;-76
2022/06/30 08:24:57;;;;;;;2.40;1.67;;;27.80;99.90;;;;;;4962994;28;20191;-76
2022/06/30 08:27:24;;;;;;;4.28;1.60;;;27.90;99.90;;;;;;4953903;28;20273;-74
2022/06/30 08:29:51;;;;;;;4.07;1.83;;;28.00;99.90;;;;;;4933047;28;20736;-77
2022/06/30 08:32:18;;;;;;;4.22;1.80;;;28.10;99.90;;;;;;4964963;28;20233;-76
2022/06/30 08:34:44;;;;;;;3.33;1.58;;;28.10;99.90;;;;;;4960403;28;20687;-76
2022/06/30 08:37:12;;;;;;;3.15;1.80;;;28.20;99.90;;;;;;4923091;29;20198;-75
2022/06/30 08:42:26;;;;;;;3.03;1.70;;;28.30;99.90;;;;;;4947889;28;20663;-76
2022/06/30 08:47:39;;;;;;;3.03;1.85;;;28.50;99.90;;;;;;4960914;28;20191;-74
2022/06/30 08:50:11;;;;;;;2.40;1.77;;;28.60;99.90;;;;;;4958731;28;20369;-76
2022/06/30 08:52:52;;;;;;;1.60;1.40;;;28.70;99.90;;;;;;4957413;28;20660;-75
2022/06/30 08:55:23;;;;;;;2.55;1.63;;;28.70;99.90;;;;;;4958079;28;20193;-75
2022/06/30 08:57:53;;;;;;;3.75;1.60;;;28.90;99.90;;;;;;4962617;28;20194;-75
2022/06/30 09:00:21;;;;;;;4.35;1.52;;;29.00;99.90;;;;;;4948851;28;20197;-74
2022/06/30 09:02:47;;;;;;;3.40;1.55;;;29.00;99.90;;;;;;4929265;28;20560;-76
2022/06/30 09:05:14;;;;;;;2.53;1.70;;;29.10;99.90;;;;;;4954626;28;20794;-75
2022/06/30 09:07:41;;;;;;;2.53;1.40;;;29.10;99.90;;;;;;4948585;28;20197;-75
2022/06/30 09:10:08;;;;;;;4.15;1.55;;;29.20;99.90;;;;;;4956022;28;20226;-76
2022/06/30 09:12:36;;;;;;;4.13;1.50;;;29.30;99.90;;;;;;4943688;28;20214;-76
2022/06/30 09:15:05;;;;;;;4.70;1.60;;;29.40;99.90;;;;;;4945351;28;20199;-76
2022/06/30 09:17:32;;;;;;;2.50;1.58;;;29.50;99.90;;;;;;4941932;28;20616;-75
2022/06/30 09:20:01;;;;;;;3.92;1.63;;;29.60;99.90;;;;;;4959420;28;20238;-77
2022/06/30 09:22:35;;;;;;;6.32;1.73;;;29.60;99.90;;;;;;4962145;28;20194;-77
2022/06/30 09:25:08;;;;;;;2.65;1.60;;;29.70;99.90;;;;;;4946452;28;20234;-75
2022/06/30 09:27:41;;;;;;;3.28;1.75;;;29.60;99.90;;;;;;4967011;28;20294;-76
2022/06/30 09:30:23;;;;;;;2.17;1.40;;;29.60;99.90;;;;;;4957443;28;20306;-75
2022/06/30 09:33:00;;;;;;;1.98;1.40;;;29.60;99.90;;;;;;4959892;28;20764;-76
2022/06/30 09:35:30;;;;;;;3.97;1.70;;;29.80;99.90;;;;;;4943485;28;20198;-76
2022/06/30 09:38:02;;;;;;;2.88;1.50;;;30.00;99.90;;;;;;4965452;28;20195;-76
2022/06/30 09:40:33;;;;;;;1.73;1.50;;;30.00;99.90;;;;;;4967078;28;20826;-78
2022/06/30 09:43:05;;;;;;;3.35;1.77;;;30.10;99.90;;;;;;4954992;28;20195;-74
2022/06/30 09:45:43;;;;;;;8.75;1.30;;;30.30;99.90;;;;;;4959007;28;20212;-75
2022/06/30 09:48:12;;;;;;;4.63;1.67;;;30.30;99.90;;;;;;4962139;28;20191;-74
2022/06/30 09:50:40;;;;;;;7.70;1.60;;;30.30;99.90;;;;;;4944546;28;20258;-76
2022/06/30 09:53:15;;;;;;;4.10;1.40;;;30.40;99.90;;;;;;4932645;28;20730;-75
2022/06/30 09:55:49;;;;;;;3.10;1.30;;;30.60;99.90;;;;;;4962003;28;20190;-75
2022/06/30 09:58:40;;;;;;;2.90;1.38;;;30.60;99.90;;;;;;4926850;29;20187;-75
2022/06/30 10:01:10;;;;;;;3.42;1.63;;;30.60;99.90;;;;;;4973646;28;20198;-77
2022/06/30 10:03:59;;;;;;;3.65;1.42;;;30.60;99.90;;;;;;4946702;28;20195;-74
2022/06/30 10:06:28;;;;;;;4.28;1.63;;;30.60;99.90;;;;;;4953858;28;20198;-77
2022/06/30 10:08:57;;;;;;;2.58;1.60;;;30.60;99.90;;;;;;4948190;28;20193;-75
2022/06/30 10:11:25;;;;;;;4.78;1.67;;;30.60;99.90;;;;;;4960303;28;20218;-75
2022/06/30 10:13:52;;;;;;;3.17;1.35;;;30.60;99.90;;;;;;4951947;28;20191;-76
2022/06/30 10:16:24;;;;;;;2.47;1.42;;;30.70;99.90;;;;;;4968928;28;20194;-74
2022/06/30 10:18:52;;;;;;;4.95;1.58;;;30.80;99.90;;;;;;4948670;28;20238;-75
2022/06/30 10:21:22;;;;;;;4.43;1.60;;;30.90;99.90;;;;;;4943358;28;20201;-73
2022/06/30 10:23:51;;;;;;;13.70;1.67;;;30.90;99.90;;;;;;4948170;28;20190;-75
2022/06/30 10:29:04;;;;;;;2.72;1.50;;;30.60;99.90;;;;;;4957610;28;20201;-75
2022/06/30 10:31:45;;;;;;;6.82;1.73;;;30.60;99.90;;;;;;4955726;28;20237;-76
2022/06/30 10:34:22;;;;;;;4.10;1.65;;;30.70;99.90;;;;;;4938681;29;20187;-74
2022/06/30 10:37:10;;;;;;;2.75;1.70;;;30.70;99.90;;;;;;4971060;28;20187;-76
2022/06/30 10:40:09;;;;;;;2.58;1.80;;;30.80;99.90;;;;;;4949700;28;20637;-71
2022/06/30 10:42:56;;;;;;;2.97;1.50;;;30.70;99.90;;;;;;4961612;28;20187;-71
2022/06/30 10:45:33;;;;;;;3.05;1.80;;;30.60;99.90;;;;;;4959063;28;20743;-70
2022/06/30 10:48:05;;;;;;;5.03;1.63;;;30.60;99.90;;;;;;4964342;28;20197;-70
2022/06/30 10:50:42;;;;;;;3.78;1.80;;;30.60;99.90;;;;;;4964028;28;20741;-70
2022/06/30 10:53:35;;;;;;;4.88;1.45;;;30.60;99.90;;;;;;4955150;28;20186;-72
2022/06/30 10:56:02;;;;;;;2.33;1.60;;;30.60;99.90;;;;;;4962038;28;20183;-71
2022/06/30 10:58:28;;;;;;;5.13;1.85;;;30.50;99.90;;;;;;4952800;28;20187;-71
2022/06/30 11:01:02;;;;;;;3.75;1.83;;;30.40;99.90;;;;;;4961357;28;20195;-72
2022/06/30 11:03:34;;;;;;;4.03;1.75;;;30.40;99.90;;;;;;4952500;28;20280;-71
2022/06/30 11:06:13;;;;;;;7.40;1.92;;;30.40;99.90;;;;;;4947551;28;20197;-70
2022/06/30 11:08:39;;;;;;;3.40;1.73;;;30.60;99.90;;;;;;4950887;28;20277;-70
2022/06/30 11:11:21;;;;;;;3.80;1.70;;;30.70;99.90;;;;;;4932162;28;20211;-70
2022/06/30 11:13:58;;;;;;;3.05;1.60;;;30.80;99.90;;;;;;4950813;28;20245;-71
2022/06/30 11:16:25;;;;;;;3.28;1.75;;;30.70;99.90;;;;;;4933869;29;20195;-70
2022/06/30 11:18:52;;;;;;;5.43;1.73;;;30.50;99.90;;;;;;4943794;28;20191;-69
2022/06/30 11:21:18;;;;;;;6.10;1.73;;;30.30;99.90;;;;;;4943878;28;20277;-69
2022/06/30 11:23:49;;;;;;;2.88;1.80;;;30.30;99.90;;;;;;4951873;28;20762;-71
2022/06/30 11:29:31;;;;;;;2.45;1.45;;;30.30;99.90;;;;;;4947397;28;20279;-69
2022/06/30 11:32:00;;;;;;;5.00;1.73;;;30.20;99.90;;;;;;4952873;28;20540;-70
2022/06/30 11:34:28;;;;;;;5.05;1.48;;;30.10;99.90;;;;;;4946190;28;20191;-70
2022/06/30 11:36:55;;;;;;;2.63;1.48;;;30.20;99.90;;;;;;4951394;28;20210;-70
2022/06/30 11:39:22;;;;;;;3.72;1.70;;;30.30;99.90;;;;;;4948187;28;20195;-71
2022/06/30 11:41:57;;;;;;;6.15;1.45;;;30.40;99.90;;;;;;4949068;28;20652;-71
2022/06/30 11:44:33;;;;;;;3.40;1.60;;;30.40;99.90;;;;;;4965537;28;20841;-70
2022/06/30 11:47:17;;;;;;;3.22;1.45;;;30.50;99.90;;;;;;4945078;28;20179;-70
2022/06/30 11:49:55;;;;;;;1.83;1.45;;;30.60;99.90;;;;;;4942808;28;20238;-70
2022/06/30 11:52:38;;;;;;;4.88;1.75;;;30.50;99.90;;;;;;4951039;28;20185;-70
2022/06/30 11:55:14;;;;;;;8.38;1.85;;;30.40;99.90;;;;;;4947849;28;20190;-71
2022/06/30 11:57:48;;;;;;;3.80;1.77;;;30.20;99.90;;;;;;4950886;28;20244;-70
2022/06/30 12:00:22;;;;;;;4.43;1.90;;;30.20;99.90;;;;;;4954587;28;20187;-72
2022/06/30 12:02:50;;;;;;;4.18;1.70;;;30.10;99.90;;;;;;4946549;28;20289;-71
2022/06/30 12:05:20;;;;;;;4.53;1.50;;;30.10;99.90;;;;;;4953968;28;20281;-72
2022/06/30 12:07:48;;;;;;;5.13;1.58;;;30.10;99.90;;;;;;4953520;28;20650;-70
2022/06/30 12:10:37;;;;;;;6.50;1.58;;;30.00;99.90;;;;;;4946622;28;20320;-70
2022/06/30 12:13:03;;;;;;;5.30;1.85;;;30.00;99.90;;;;;;4947682;28;20215;-72
2022/06/30 12:15:30;;;;;;;8.63;1.80;;;29.90;99.90;;;;;;4954099;28;20217;-71
2022/06/30 12:17:56;;;;;;;8.68;1.63;;;29.90;99.90;;;;;;4948621;29;20182;-71
2022/06/30 12:20:27;;;;;;;3.53;1.60;;;29.90;99.90;;;;;;4965021;28;20697;-70
2022/06/30 12:22:55;;;;;;;5.38;2.10;;;29.90;99.90;;;;;;4948719;28;20202;-70
2022/06/30 12:25:22;;;;;;;5.25;2.33;;;29.90;99.90;;;;;;4948587;28;20262;-71
2022/06/30 12:27:52;;;;;;;4.40;2.33;;;29.90;99.90;;;;;;4951883;28;20192;-70
2022/06/30 12:30:23;;;;;;;7.30;5.15;;;29.90;99.90;;;;;;4947734;28;20210;-71
2022/06/30 12:32:58;;;;;;;6.53;4.88;;;29.90;99.90;;;;;;4968219;28;20195;-69
2022/06/30 12:35:34;;;;;;;7.00;4.07;;;29.90;99.90;;;;;;4961266;28;20182;-71
2022/06/30 12:38:24;;;;;;;10.00;8.13;;;29.70;99.90;;;;;;4947844;28;20225;-70
2022/06/30 12:40:53;;;;;;;8.65;6.35;;;29.60;99.90;;;;;;4949497;28;20687;-71
2022/06/30 12:43:20;;;;;;;8.35;6.93;;;29.70;99.90;;;;;;4953297;28;20220;-72
2022/06/30 12:45:58;;;;;;;10.68;6.93;;;29.60;99.90;;;;;;4963719;28;20270;-71
2022/06/30 12:48:52;;;;;;;10.07;8.13;;;29.60;99.90;;;;;;4972099;28;20270;-69
2022/06/30 12:51:31;;;;;;;16.13;9.88;;;29.60;99.90;;;;;;4950856;29;20305;-70
2022/06/30 12:54:13;;;;;;;9.52;6.75;;;29.50;99.90;;;;;;4949198;28;20249;-69
2022/06/30 12:56:41;;;;;;;7.82;6.05;;;29.40;99.90;;;;;;4956582;28;20198;-71
2022/06/30 12:59:13;;;;;;;6.50;4.32;;;29.30;99.90;;;;;;4949695;28;20198;-71
2022/06/30 13:01:43;;;;;;;9.38;6.97;;;29.40;99.90;;;;;;4953330;28;20270;-71
2022/06/30 13:04:16;;;;;;;14.68;12.55;;;29.50;99.90;;;;;;4961326;28;20186;-70
2022/06/30 13:06:45;;;;;;;14.18;10.38;;;29.50;99.90;;;;;;4949092;28;20202;-71
2022/06/30 13:09:15;;;;;;;13.38;9.88;;;29.50;99.90;;;;;;4941473;28;20710;-70
2022/06/30 13:11:50;;;;;;;15.32;10.70;;;29.40;99.90;;;;;;4946754;28;20223;-70
2022/06/30 13:14:19;;;;;;;21.48;16.67;;;29.40;99.90;;;;;;4940271;28;20187;-71
2022/06/30 13:16:47;;;;;;;16.33;13.43;;;29.40;99.90;;;;;;4955504;28;20190;-70
2022/06/30 13:19:15;;;;;;;14.85;8.23;;;29.40;99.90;;;;;;4962880;28;20808;-69